| Date | Time | Temp. (oF) | Dew Point (oF) | Rel. Hum. (%) | Press. (in.) | Wind Dir. | Wind Speed (mph) | Hourly Rainfall (in.) |
|
|---|---|---|---|---|---|---|---|---|---|
| 1 | 04/01 | 00:00 | 45 | 44 | 97 | 30.06 | ENE | 2 | 0.00 |
| 2 | 03/31 | 23:00 | 45 | 43 | 95 | 30.05 | SE | 3 | 0.00 |
| 3 | 03/31 | 22:00 | 45 | 43 | 94 | 30.06 | ESE | 7 | 0.00 |
| 4 | 03/31 | 21:00 | 45 | 42 | 92 | 30.06 | SSE | 11 | 0.00 |
| 5 | 03/31 | 20:00 | 46 | 43 | 90 | 30.06 | ESE | 5 | 0.00 |
| 6 | 03/31 | 19:00 | 46 | 42 | 88 | 30.04 | SE | 4 | 0.00 |
| 7 | 03/31 | 18:00 | 47 | 43 | 86 | 30.05 | S | 8 | 0.00 |
| 8 | 03/31 | 17:00 | 48 | 42 | 81 | 30.06 | S | 7 | 0.00 |
| 9 | 03/31 | 16:00 | 50 | 43 | 77 | 30.04 | E | 4 | 0.00 |
| 10 | 03/31 | 15:00 | 51 | 44 | 77 | 30.05 | SE | 13 | 0.00 |
| 11 | 03/31 | 14:00 | 51 | 44 | 78 | 30.10 | SSE | 6 | 0.00 |
| 12 | 03/31 | 13:00 | 50 | 44 | 82 | 30.11 | ENE | 4 | 0.00 |
| 13 | 03/31 | 12:00 | 49 | 44 | 85 | 30.11 | SE | 5 | 0.00 |
| 14 | 03/31 | 11:00 | 46 | 42 | 89 | 30.15 | ESE | 4 | 0.00 |
| 15 | 03/31 | 10:00 | 45 | 42 | 91 | 30.14 | ESE | 9 | 0.00 |
| 16 | 03/31 | 09:00 | 43 | 41 | 94 | 30.18 | ESE | 5 | 0.00 |
| 17 | 03/31 | 08:00 | 41 | 39 | 94 | 30.20 | ESE | 6 | 0.00 |
| 18 | 03/31 | 07:00 | 39 | 37 | 96 | 30.20 | ESE | 2 | 0.00 |
| 19 | 03/31 | 06:00 | 37 | 35 | 95 | 30.17 | E | 3 | 0.00 |
| 20 | 03/31 | 05:00 | 38 | 35 | 92 | 30.18 | ENE | 2 | 0.00 |
| 21 | 03/31 | 04:00 | 39 | 36 | 89 | 30.17 | NE | 4 | 0.00 |
| 22 | 03/31 | 03:00 | 41 | 37 | 87 | 30.13 | E | 6 | 0.00 |
| 23 | 03/31 | 02:00 | 41 | 38 | 90 | 30.14 | SSE | 3 | 0.00 |
| 24 | 03/31 | 01:00 | 42 | 38 | 86 | 30.13 | ENE | 3 | 0.00 |